sensor_id;sensor_type;location;lat;lon;timestamp;temperature;humidity
30648;DHT22;17683;53.360;9.736;2022-08-21T00:01:27;14.50;99.90
30648;DHT22;17683;53.360;9.736;2022-08-21T00:03:54;14.50;99.90
30648;DHT22;17683;53.360;9.736;2022-08-21T00:06:21;14.50;99.90
30648;DHT22;17683;53.360;9.736;2022-08-21T00:08:50;14.50;99.90
30648;DHT22;17683;53.360;9.736;2022-08-21T00:11:16;14.50;99.90
30648;DHT22;17683;53.360;9.736;2022-08-21T00:13:42;14.50;99.90
30648;DHT22;17683;53.360;9.736;2022-08-21T00:16:08;14.40;99.90
30648;DHT22;17683;53.360;9.736;2022-08-21T00:18:34;14.40;99.90
30648;DHT22;17683;53.360;9.736;2022-08-21T00:20:59;14.40;99.90
30648;DHT22;17683;53.360;9.736;2022-08-21T00:23:25;14.40;99.90
30648;DHT22;17683;53.360;9.736;2022-08-21T00:25:51;14.40;99.90
30648;DHT22;17683;53.360;9.736;2022-08-21T00:28:17;14.40;99.90
30648;DHT22;17683;53.360;9.736;2022-08-21T00:30:44;14.30;99.90
30648;DHT22;17683;53.360;9.736;2022-08-21T00:33:11;14.30;99.90
30648;DHT22;17683;53.360;9.736;2022-08-21T00:35:40;14.30;99.90
30648;DHT22;17683;53.360;9.736;2022-08-21T00:38:07;14.30;99.90
30648;DHT22;17683;53.360;9.736;2022-08-21T00:40:39;14.30;99.90
30648;DHT22;17683;53.360;9.736;2022-08-21T00:43:07;14.20;99.90
30648;DHT22;17683;53.360;9.736;2022-08-21T00:45:34;14.20;99.90
30648;DHT22;17683;53.360;9.736;2022-08-21T00:48:00;14.20;99.90
30648;DHT22;17683;53.360;9.736;2022-08-21T00:50:29;14.20;99.90
30648;DHT22;17683;53.360;9.736;2022-08-21T00:52:57;14.20;99.90
30648;DHT22;17683;53.360;9.736;2022-08-21T00:55:24;14.10;99.90
30648;DHT22;17683;53.360;9.736;2022-08-21T00:57:52;14.10;99.90
30648;DHT22;17683;53.360;9.736;2022-08-21T01:00:26;14.10;99.90
30648;DHT22;17683;53.360;9.736;2022-08-21T01:02:55;14.10;99.90
30648;DHT22;17683;53.360;9.736;2022-08-21T01:05:21;14.00;99.90
30648;DHT22;17683;53.360;9.736;2022-08-21T01:07:47;14.00;99.90
30648;DHT22;17683;53.360;9.736;2022-08-21T01:10:13;14.00;99.90
30648;DHT22;17683;53.360;9.736;2022-08-21T01:12:40;14.00;99.90
30648;DHT22;17683;53.360;9.736;2022-08-21T01:15:07;14.00;99.90
30648;DHT22;17683;53.360;9.736;2022-08-21T01:17:34;13.90;99.90
30648;DHT22;17683;53.360;9.736;2022-08-21T01:20:05;13.90;99.90
30648;DHT22;17683;53.360;9.736;2022-08-21T01:22:31;13.90;99.90
30648;DHT22;17683;53.360;9.736;2022-08-21T01:24:57;13.90;99.90
30648;DHT22;17683;53.360;9.736;2022-08-21T01:27:23;13.90;99.90
30648;DHT22;17683;53.360;9.736;2022-08-21T01:30:07;13.90;99.90
30648;DHT22;17683;53.360;9.736;2022-08-21T01:32:34;13.90;99.90
30648;DHT22;17683;53.360;9.736;2022-08-21T01:35:01;13.80;99.90
30648;DHT22;17683;53.360;9.736;2022-08-21T01:37:26;13.80;99.90
30648;DHT22;17683;53.360;9.736;2022-08-21T01:39:52;13.80;99.90
30648;DHT22;17683;53.360;9.736;2022-08-21T01:42:18;13.80;99.90
30648;DHT22;17683;53.360;9.736;2022-08-21T01:44:44;13.80;99.90
30648;DHT22;17683;53.360;9.736;2022-08-21T01:47:12;13.80;99.90
30648;DHT22;17683;53.360;9.736;2022-08-21T01:49:39;13.80;99.90
30648;DHT22;17683;53.360;9.736;2022-08-21T01:52:06;13.70;99.90
30648;DHT22;17683;53.360;9.736;2022-08-21T01:54:32;13.70;99.90
30648;DHT22;17683;53.360;9.736;2022-08-21T01:56:59;13.70;99.90
30648;DHT22;17683;53.360;9.736;2022-08-21T01:59:25;13.70;99.90
30648;DHT22;17683;53.360;9.736;2022-08-21T02:01:52;13.70;99.90
30648;DHT22;17683;53.360;9.736;2022-08-21T02:04:19;13.70;99.90
30648;DHT22;17683;53.360;9.736;2022-08-21T02:06:46;13.70;99.90
30648;DHT22;17683;53.360;9.736;2022-08-21T02:09:13;13.60;99.90
30648;DHT22;17683;53.360;9.736;2022-08-21T02:11:40;13.60;99.90
30648;DHT22;17683;53.360;9.736;2022-08-21T02:14:10;13.60;99.90
30648;DHT22;17683;53.360;9.736;2022-08-21T02:16:38;13.60;99.90
30648;DHT22;17683;53.360;9.736;2022-08-21T02:19:04;13.60;99.90
30648;DHT22;17683;53.360;9.736;2022-08-21T02:21:30;13.60;99.90
30648;DHT22;17683;53.360;9.736;2022-08-21T02:23:56;13.60;99.90
30648;DHT22;17683;53.360;9.736;2022-08-21T02:26:21;13.60;99.90
30648;DHT22;17683;53.360;9.736;2022-08-21T02:28:47;13.60;99.90
30648;DHT22;17683;53.360;9.736;2022-08-21T02:31:13;13.60;99.90
30648;DHT22;17683;53.360;9.736;2022-08-21T02:33:40;13.60;99.90
30648;DHT22;17683;53.360;9.736;2022-08-21T02:36:06;13.60;99.90
30648;DHT22;17683;53.360;9.736;2022-08-21T02:38:34;13.60;99.90
30648;DHT22;17683;53.360;9.736;2022-08-21T02:41:05;13.50;99.90
30648;DHT22;17683;53.360;9.736;2022-08-21T02:43:31;13.50;99.90
30648;DHT22;17683;53.360;9.736;2022-08-21T02:45:58;13.50;99.90
30648;DHT22;17683;53.360;9.736;2022-08-21T02:48:26;13.50;99.90
30648;DHT22;17683;53.360;9.736;2022-08-21T02:50:58;13.50;99.90
30648;DHT22;17683;53.360;9.736;2022-08-21T02:53:25;13.50;99.90
30648;DHT22;17683;53.360;9.736;2022-08-21T02:55:52;13.50;99.90
30648;DHT22;17683;53.360;9.736;2022-08-21T02:58:23;13.50;99.90
30648;DHT22;17683;53.360;9.736;2022-08-21T03:00:50;13.50;99.90
30648;DHT22;17683;53.360;9.736;2022-08-21T03:03:17;13.50;99.90
30648;DHT22;17683;53.360;9.736;2022-08-21T03:05:43;13.40;99.90
30648;DHT22;17683;53.360;9.736;2022-08-21T03:08:11;13.40;99.90
30648;DHT22;17683;53.360;9.736;2022-08-21T03:10:39;13.40;99.90
30648;DHT22;17683;53.360;9.736;2022-08-21T03:13:06;13.40;99.90
30648;DHT22;17683;53.360;9.736;2022-08-21T03:15:32;13.40;99.90
30648;DHT22;17683;53.360;9.736;2022-08-21T03:17:58;13.40;99.90
30648;DHT22;17683;53.360;9.736;2022-08-21T03:20:26;13.30;99.90
30648;DHT22;17683;53.360;9.736;2022-08-21T03:22:53;13.30;99.90
30648;DHT22;17683;53.360;9.736;2022-08-21T03:25:20;13.30;99.90
30648;DHT22;17683;53.360;9.736;2022-08-21T03:27:46;13.30;99.90
30648;DHT22;17683;53.360;9.736;2022-08-21T03:30:14;13.30;99.90
30648;DHT22;17683;53.360;9.736;2022-08-21T03:32:40;13.30;99.90
30648;DHT22;17683;53.360;9.736;2022-08-21T03:35:06;13.30;99.90
30648;DHT22;17683;53.360;9.736;2022-08-21T03:37:32;13.30;99.90
30648;DHT22;17683;53.360;9.736;2022-08-21T03:39:58;13.30;99.90
30648;DHT22;17683;53.360;9.736;2022-08-21T03:42:24;13.20;99.90
30648;DHT22;17683;53.360;9.736;2022-08-21T03:44:50;13.20;99.90
30648;DHT22;17683;53.360;9.736;2022-08-21T03:47:16;13.20;99.90
30648;DHT22;17683;53.360;9.736;2022-08-21T03:49:41;13.20;99.90
30648;DHT22;17683;53.360;9.736;2022-08-21T03:52:07;13.20;99.90
30648;DHT22;17683;53.360;9.736;2022-08-21T03:54:33;13.20;99.90
30648;DHT22;17683;53.360;9.736;2022-08-21T03:56:59;13.20;99.90
30648;DHT22;17683;53.360;9.736;2022-08-21T03:59:25;13.10;99.90
30648;DHT22;17683;53.360;9.736;2022-08-21T04:01:55;13.10;99.90
30648;DHT22;17683;53.360;9.736;2022-08-21T04:04:21;13.10;99.90
30648;DHT22;17683;53.360;9.736;2022-08-21T04:06:47;13.10;99.90
30648;DHT22;17683;53.360;9.736;2022-08-21T04:09:13;13.10;99.90
30648;DHT22;17683;53.360;9.736;2022-08-21T04:11:39;13.10;99.90
30648;DHT22;17683;53.360;9.736;2022-08-21T04:14:04;13.10;99.90
30648;DHT22;17683;53.360;9.736;2022-08-21T04:16:30;13.00;99.90
30648;DHT22;17683;53.360;9.736;2022-08-21T04:18:56;13.00;99.90
30648;DHT22;17683;53.360;9.736;2022-08-21T04:21:22;13.00;99.90
30648;DHT22;17683;53.360;9.736;2022-08-21T04:23:49;13.00;99.90
30648;DHT22;17683;53.360;9.736;2022-08-21T04:26:14;13.00;99.90
30648;DHT22;17683;53.360;9.736;2022-08-21T04:28:41;13.00;99.90
30648;DHT22;17683;53.360;9.736;2022-08-21T04:31:08;13.00;99.90
30648;DHT22;17683;53.360;9.736;2022-08-21T04:33:34;13.00;99.90
30648;DHT22;17683;53.360;9.736;2022-08-21T04:35:59;12.90;99.90
30648;DHT22;17683;53.360;9.736;2022-08-21T04:38:25;12.90;99.90
30648;DHT22;17683;53.360;9.736;2022-08-21T04:40:52;12.90;99.90
30648;DHT22;17683;53.360;9.736;2022-08-21T04:43:18;12.90;99.90
30648;DHT22;17683;53.360;9.736;2022-08-21T04:45:46;12.90;99.90
30648;DHT22;17683;53.360;9.736;2022-08-21T04:48:14;12.90;99.90
30648;DHT22;17683;53.360;9.736;2022-08-21T04:50:58;13.00;99.90
30648;DHT22;17683;53.360;9.736;2022-08-21T04:56:02;13.00;99.90
30648;DHT22;17683;53.360;9.736;2022-08-21T04:58:30;13.10;99.90
30648;DHT22;17683;53.360;9.736;2022-08-21T05:01:00;13.10;99.90
30648;DHT22;17683;53.360;9.736;2022-08-21T05:03:27;13.20;99.90
30648;DHT22;17683;53.360;9.736;2022-08-21T05:05:54;13.20;99.90
30648;DHT22;17683;53.360;9.736;2022-08-21T05:08:21;13.30;99.90
30648;DHT22;17683;53.360;9.736;2022-08-21T05:10:48;13.40;99.90
30648;DHT22;17683;53.360;9.736;2022-08-21T05:13:15;13.40;99.90
30648;DHT22;17683;53.360;9.736;2022-08-21T05:15:41;13.50;99.90
30648;DHT22;17683;53.360;9.736;2022-08-21T05:18:07;13.50;99.90
30648;DHT22;17683;53.360;9.736;2022-08-21T05:20:34;13.60;99.90
30648;DHT22;17683;53.360;9.736;2022-08-21T05:23:00;13.60;99.90
30648;DHT22;17683;53.360;9.736;2022-08-21T05:25:27;13.60;99.90
30648;DHT22;17683;53.360;9.736;2022-08-21T05:27:53;13.70;99.90
30648;DHT22;17683;53.360;9.736;2022-08-21T05:30:19;13.70;99.90
30648;DHT22;17683;53.360;9.736;2022-08-21T05:32:46;13.80;99.90
30648;DHT22;17683;53.360;9.736;2022-08-21T05:35:13;13.80;99.90
30648;DHT22;17683;53.360;9.736;2022-08-21T05:37:39;13.90;99.90
30648;DHT22;17683;53.360;9.736;2022-08-21T05:40:05;13.90;99.90
30648;DHT22;17683;53.360;9.736;2022-08-21T05:42:32;14.00;99.90
30648;DHT22;17683;53.360;9.736;2022-08-21T05:44:57;14.10;99.90
30648;DHT22;17683;53.360;9.736;2022-08-21T05:47:23;14.20;99.90
30648;DHT22;17683;53.360;9.736;2022-08-21T05:49:49;14.20;99.90
30648;DHT22;17683;53.360;9.736;2022-08-21T05:52:19;14.30;99.90
30648;DHT22;17683;53.360;9.736;2022-08-21T05:54:45;14.40;99.90
30648;DHT22;17683;53.360;9.736;2022-08-21T05:57:11;14.50;99.90
30648;DHT22;17683;53.360;9.736;2022-08-21T05:59:37;14.50;99.90
30648;DHT22;17683;53.360;9.736;2022-08-21T06:02:03;14.60;99.90
30648;DHT22;17683;53.360;9.736;2022-08-21T06:04:29;14.60;99.90
30648;DHT22;17683;53.360;9.736;2022-08-21T06:06:55;14.60;99.90
30648;DHT22;17683;53.360;9.736;2022-08-21T06:09:20;14.70;99.90
30648;DHT22;17683;53.360;9.736;2022-08-21T06:11:46;14.70;99.90
30648;DHT22;17683;53.360;9.736;2022-08-21T06:14:15;14.80;99.90
30648;DHT22;17683;53.360;9.736;2022-08-21T06:16:41;14.90;99.90
30648;DHT22;17683;53.360;9.736;2022-08-21T06:19:07;14.90;99.90
30648;DHT22;17683;53.360;9.736;2022-08-21T06:21:33;15.00;99.90
30648;DHT22;17683;53.360;9.736;2022-08-21T06:23:59;15.10;99.90
30648;DHT22;17683;53.360;9.736;2022-08-21T06:26:24;15.30;99.90
30648;DHT22;17683;53.360;9.736;2022-08-21T06:28:51;15.50;99.90
30648;DHT22;17683;53.360;9.736;2022-08-21T06:31:22;15.60;99.90
30648;DHT22;17683;53.360;9.736;2022-08-21T06:33:48;15.80;99.90
30648;DHT22;17683;53.360;9.736;2022-08-21T06:36:14;16.00;99.90
30648;DHT22;17683;53.360;9.736;2022-08-21T06:38:40;16.20;99.90
30648;DHT22;17683;53.360;9.736;2022-08-21T06:41:07;16.40;99.90
30648;DHT22;17683;53.360;9.736;2022-08-21T06:43:33;16.50;99.90
30648;DHT22;17683;53.360;9.736;2022-08-21T06:45:58;16.70;99.90
30648;DHT22;17683;53.360;9.736;2022-08-21T06:48:24;16.90;99.90
30648;DHT22;17683;53.360;9.736;2022-08-21T06:50:50;17.00;99.90
30648;DHT22;17683;53.360;9.736;2022-08-21T06:53:18;17.20;99.90
30648;DHT22;17683;53.360;9.736;2022-08-21T06:55:44;17.30;99.90
30648;DHT22;17683;53.360;9.736;2022-08-21T06:58:10;17.50;99.90
30648;DHT22;17683;53.360;9.736;2022-08-21T07:00:40;17.70;99.90
30648;DHT22;17683;53.360;9.736;2022-08-21T07:03:06;18.00;99.90
30648;DHT22;17683;53.360;9.736;2022-08-21T07:05:32;18.20;99.90
30648;DHT22;17683;53.360;9.736;2022-08-21T07:07:58;18.30;99.90
30648;DHT22;17683;53.360;9.736;2022-08-21T07:10:25;18.50;99.90
30648;DHT22;17683;53.360;9.736;2022-08-21T07:12:51;18.70;99.90
30648;DHT22;17683;53.360;9.736;2022-08-21T07:15:19;18.90;99.90
30648;DHT22;17683;53.360;9.736;2022-08-21T07:17:44;19.00;99.90
30648;DHT22;17683;53.360;9.736;2022-08-21T07:20:10;19.20;99.90
30648;DHT22;17683;53.360;9.736;2022-08-21T07:22:37;19.40;99.90
30648;DHT22;17683;53.360;9.736;2022-08-21T07:25:05;19.60;99.90
30648;DHT22;17683;53.360;9.736;2022-08-21T07:27:30;19.80;99.90
30648;DHT22;17683;53.360;9.736;2022-08-21T07:29:57;20.00;99.90
30648;DHT22;17683;53.360;9.736;2022-08-21T07:32:23;20.10;99.90
30648;DHT22;17683;53.360;9.736;2022-08-21T07:34:48;20.30;99.90
30648;DHT22;17683;53.360;9.736;2022-08-21T07:37:14;20.40;99.90
30648;DHT22;17683;53.360;9.736;2022-08-21T07:39:40;20.40;99.90
30648;DHT22;17683;53.360;9.736;2022-08-21T07:42:06;20.60;99.90
30648;DHT22;17683;53.360;9.736;2022-08-21T07:44:32;20.70;99.90
30648;DHT22;17683;53.360;9.736;2022-08-21T07:47:00;20.80;99.90
30648;DHT22;17683;53.360;9.736;2022-08-21T07:49:26;20.90;99.90
30648;DHT22;17683;53.360;9.736;2022-08-21T07:51:52;21.00;99.90
30648;DHT22;17683;53.360;9.736;2022-08-21T07:54:18;21.10;99.90
30648;DHT22;17683;53.360;9.736;2022-08-21T07:56:44;21.20;99.90
30648;DHT22;17683;53.360;9.736;2022-08-21T07:59:11;21.30;99.90
30648;DHT22;17683;53.360;9.736;2022-08-21T08:01:36;21.40;99.90
30648;DHT22;17683;53.360;9.736;2022-08-21T08:04:02;21.50;99.90
30648;DHT22;17683;53.360;9.736;2022-08-21T08:06:29;21.50;99.90
30648;DHT22;17683;53.360;9.736;2022-08-21T08:08:56;21.60;99.90
30648;DHT22;17683;53.360;9.736;2022-08-21T08:11:21;21.70;99.90
30648;DHT22;17683;53.360;9.736;2022-08-21T08:13:50;21.70;99.90
30648;DHT22;17683;53.360;9.736;2022-08-21T08:16:16;21.80;99.90
30648;DHT22;17683;53.360;9.736;2022-08-21T08:18:42;21.90;99.90
30648;DHT22;17683;53.360;9.736;2022-08-21T08:21:10;22.00;99.90
30648;DHT22;17683;53.360;9.736;2022-08-21T08:23:36;22.20;99.90
30648;DHT22;17683;53.360;9.736;2022-08-21T08:26:02;22.30;99.90
30648;DHT22;17683;53.360;9.736;2022-08-21T08:28:29;22.40;99.90
30648;DHT22;17683;53.360;9.736;2022-08-21T08:30:55;22.50;99.90
30648;DHT22;17683;53.360;9.736;2022-08-21T08:33:21;22.50;99.90
30648;DHT22;17683;53.360;9.736;2022-08-21T08:35:49;22.60;99.90
30648;DHT22;17683;53.360;9.736;2022-08-21T08:38:18;22.70;99.90
30648;DHT22;17683;53.360;9.736;2022-08-21T08:41:09;22.90;99.20
30648;DHT22;17683;53.360;9.736;2022-08-21T08:43:36;22.90;99.20
30648;DHT22;17683;53.360;9.736;2022-08-21T08:46:06;23.00;99.30
30648;DHT22;17683;53.360;9.736;2022-08-21T08:48:55;23.10;98.80
30648;DHT22;17683;53.360;9.736;2022-08-21T08:54:16;23.30;98.50
30648;DHT22;17683;53.360;9.736;2022-08-21T08:56:43;23.30;98.20
30648;DHT22;17683;53.360;9.736;2022-08-21T08:59:25;23.30;98.20
30648;DHT22;17683;53.360;9.736;2022-08-21T09:01:53;23.40;98.00
30648;DHT22;17683;53.360;9.736;2022-08-21T09:04:24;23.50;98.20
30648;DHT22;17683;53.360;9.736;2022-08-21T09:07:06;23.50;97.40
30648;DHT22;17683;53.360;9.736;2022-08-21T09:10:03;23.60;97.70
30648;DHT22;17683;53.360;9.736;2022-08-21T09:12:45;23.80;97.00
30648;DHT22;17683;53.360;9.736;2022-08-21T09:15:36;23.90;96.90
30648;DHT22;17683;53.360;9.736;2022-08-21T09:21:13;24.00;97.30
30648;DHT22;17683;53.360;9.736;2022-08-21T09:29:23;24.10;96.50
30648;DHT22;17683;53.360;9.736;2022-08-21T09:31:50;24.20;96.20
30648;DHT22;17683;53.360;9.736;2022-08-21T09:34:25;24.30;96.00
30648;DHT22;17683;53.360;9.736;2022-08-21T09:36:51;24.40;95.70
30648;DHT22;17683;53.360;9.736;2022-08-21T09:39:37;24.40;95.20
30648;DHT22;17683;53.360;9.736;2022-08-21T09:42:08;24.60;95.40
30648;DHT22;17683;53.360;9.736;2022-08-21T09:44:38;24.70;95.40
30648;DHT22;17683;53.360;9.736;2022-08-21T09:47:06;24.80;94.70
30648;DHT22;17683;53.360;9.736;2022-08-21T09:49:34;24.80;94.10
30648;DHT22;17683;53.360;9.736;2022-08-21T09:52:02;24.90;94.50
30648;DHT22;17683;53.360;9.736;2022-08-21T09:54:34;25.00;94.70
30648;DHT22;17683;53.360;9.736;2022-08-21T09:59:52;25.30;93.50
30648;DHT22;17683;53.360;9.736;2022-08-21T10:02:28;25.30;93.60
30648;DHT22;17683;53.360;9.736;2022-08-21T10:04:58;25.40;93.90
30648;DHT22;17683;53.360;9.736;2022-08-21T10:07:27;25.30;92.90
30648;DHT22;17683;53.360;9.736;2022-08-21T10:10:15;25.30;93.00
30648;DHT22;17683;53.360;9.736;2022-08-21T10:15:51;25.30;93.70
30648;DHT22;17683;53.360;9.736;2022-08-21T10:18:41;25.30;93.40
30648;DHT22;17683;53.360;9.736;2022-08-21T10:27:21;25.30;91.80
30648;DHT22;17683;53.360;9.736;2022-08-21T10:39:42;24.80;92.90
30648;DHT22;17683;53.360;9.736;2022-08-21T10:42:20;24.90;92.50
30648;DHT22;17683;53.360;9.736;2022-08-21T10:47:28;25.00;93.30
30648;DHT22;17683;53.360;9.736;2022-08-21T10:50:12;25.10;93.20
30648;DHT22;17683;53.360;9.736;2022-08-21T10:55:14;24.90;92.60
30648;DHT22;17683;53.360;9.736;2022-08-21T10:58:09;24.80;92.20
30648;DHT22;17683;53.360;9.736;2022-08-21T11:00:50;24.70;92.40
30648;DHT22;17683;53.360;9.736;2022-08-21T11:03:41;24.70;93.40
30648;DHT22;17683;53.360;9.736;2022-08-21T11:06:13;24.90;93.00
30648;DHT22;17683;53.360;9.736;2022-08-21T11:08:43;25.10;92.50
30648;DHT22;17683;53.360;9.736;2022-08-21T11:11:12;25.20;92.60
30648;DHT22;17683;53.360;9.736;2022-08-21T11:13:56;25.10;92.40
30648;DHT22;17683;53.360;9.736;2022-08-21T11:19:02;25.20;91.70
30648;DHT22;17683;53.360;9.736;2022-08-21T11:21:45;25.30;92.70
30648;DHT22;17683;53.360;9.736;2022-08-21T11:29:37;26.20;90.80
30648;DHT22;17683;53.360;9.736;2022-08-21T11:43:35;26.40;90.00
30648;DHT22;17683;53.360;9.736;2022-08-21T11:48:48;25.90;90.50
30648;DHT22;17683;53.360;9.736;2022-08-21T11:51:20;25.70;90.70
30648;DHT22;17683;53.360;9.736;2022-08-21T11:54:26;25.40;90.70
30648;DHT22;17683;53.360;9.736;2022-08-21T11:57:17;25.30;90.60
30648;DHT22;17683;53.360;9.736;2022-08-21T12:00:03;25.30;90.40
30648;DHT22;17683;53.360;9.736;2022-08-21T12:02:36;25.10;91.00
30648;DHT22;17683;53.360;9.736;2022-08-21T12:05:05;25.00;91.50
30648;DHT22;17683;53.360;9.736;2022-08-21T12:07:36;24.90;91.40
30648;DHT22;17683;53.360;9.736;2022-08-21T12:10:15;24.90;91.30
30648;DHT22;17683;53.360;9.736;2022-08-21T12:12:43;25.00;91.70
30648;DHT22;17683;53.360;9.736;2022-08-21T12:18:05;25.30;90.90
30648;DHT22;17683;53.360;9.736;2022-08-21T12:20:58;25.50;91.10
30648;DHT22;17683;53.360;9.736;2022-08-21T12:23:34;25.60;91.10
30648;DHT22;17683;53.360;9.736;2022-08-21T12:28:43;26.00;90.10
30648;DHT22;17683;53.360;9.736;2022-08-21T12:31:20;25.90;89.70
30648;DHT22;17683;53.360;9.736;2022-08-21T12:33:55;25.90;90.70
30648;DHT22;17683;53.360;9.736;2022-08-21T12:36:45;26.00;90.40
30648;DHT22;17683;53.360;9.736;2022-08-21T12:39:14;26.00;89.50
30648;DHT22;17683;53.360;9.736;2022-08-21T12:41:48;25.90;87.30
30648;DHT22;17683;53.360;9.736;2022-08-21T12:44:20;25.90;90.10
30648;DHT22;17683;53.360;9.736;2022-08-21T12:46:58;26.00;90.60
30648;DHT22;17683;53.360;9.736;2022-08-21T12:49:36;26.20;90.70
30648;DHT22;17683;53.360;9.736;2022-08-21T12:52:24;26.30;90.70
30648;DHT22;17683;53.360;9.736;2022-08-21T12:54:50;26.10;86.70
30648;DHT22;17683;53.360;9.736;2022-08-21T12:57:22;25.90;88.10
30648;DHT22;17683;53.360;9.736;2022-08-21T12:59:59;25.60;89.10
30648;DHT22;17683;53.360;9.736;2022-08-21T13:02:32;25.40;90.30
30648;DHT22;17683;53.360;9.736;2022-08-21T13:05:03;25.20;90.60
30648;DHT22;17683;53.360;9.736;2022-08-21T13:07:31;25.10;91.00
30648;DHT22;17683;53.360;9.736;2022-08-21T13:10:00;24.90;91.20
30648;DHT22;17683;53.360;9.736;2022-08-21T13:12:28;24.90;91.40
30648;DHT22;17683;53.360;9.736;2022-08-21T13:15:00;24.90;90.20
30648;DHT22;17683;53.360;9.736;2022-08-21T13:17:27;24.90;91.10
30648;DHT22;17683;53.360;9.736;2022-08-21T13:19:59;25.00;90.20
30648;DHT22;17683;53.360;9.736;2022-08-21T13:22:26;25.20;90.90
30648;DHT22;17683;53.360;9.736;2022-08-21T13:24:52;25.30;91.00
30648;DHT22;17683;53.360;9.736;2022-08-21T13:27:28;25.30;90.00
30648;DHT22;17683;53.360;9.736;2022-08-21T13:30:14;25.40;90.30
30648;DHT22;17683;53.360;9.736;2022-08-21T13:32:51;25.50;89.50
30648;DHT22;17683;53.360;9.736;2022-08-21T13:35:27;25.50;90.00
30648;DHT22;17683;53.360;9.736;2022-08-21T13:37:54;25.70;89.70
30648;DHT22;17683;53.360;9.736;2022-08-21T13:40:26;25.80;89.70
30648;DHT22;17683;53.360;9.736;2022-08-21T13:42:52;25.60;89.20
30648;DHT22;17683;53.360;9.736;2022-08-21T13:45:31;25.60;90.20
30648;DHT22;17683;53.360;9.736;2022-08-21T13:48:00;25.40;89.50
30648;DHT22;17683;53.360;9.736;2022-08-21T13:50:26;25.20;90.20
30648;DHT22;17683;53.360;9.736;2022-08-21T13:53:04;25.10;90.80
30648;DHT22;17683;53.360;9.736;2022-08-21T13:55:40;25.00;90.80
30648;DHT22;17683;53.360;9.736;2022-08-21T13:58:07;24.90;90.80
30648;DHT22;17683;53.360;9.736;2022-08-21T14:00:57;24.90;91.60
30648;DHT22;17683;53.360;9.736;2022-08-21T14:03:43;25.00;90.80
30648;DHT22;17683;53.360;9.736;2022-08-21T14:06:17;25.00;90.50
30648;DHT22;17683;53.360;9.736;2022-08-21T14:08:53;24.90;89.10
30648;DHT22;17683;53.360;9.736;2022-08-21T14:11:20;24.70;90.00
30648;DHT22;17683;53.360;9.736;2022-08-21T14:14:01;24.70;90.50
30648;DHT22;17683;53.360;9.736;2022-08-21T14:16:42;24.60;90.80
30648;DHT22;17683;53.360;9.736;2022-08-21T14:19:55;24.50;91.40
30648;DHT22;17683;53.360;9.736;2022-08-21T14:21:56;24.40;90.60
30648;DHT22;17683;53.360;9.736;2022-08-21T14:27:03;24.40;92.10
30648;DHT22;17683;53.360;9.736;2022-08-21T14:29:38;24.50;90.90
30648;DHT22;17683;53.360;9.736;2022-08-21T14:34:39;24.50;90.40
30648;DHT22;17683;53.360;9.736;2022-08-21T14:37:04;24.40;90.40
30648;DHT22;17683;53.360;9.736;2022-08-21T14:39:30;24.30;90.60
30648;DHT22;17683;53.360;9.736;2022-08-21T14:41:57;24.20;90.70
30648;DHT22;17683;53.360;9.736;2022-08-21T14:44:23;24.20;91.00
30648;DHT22;17683;53.360;9.736;2022-08-21T14:46:49;24.30;90.70
30648;DHT22;17683;53.360;9.736;2022-08-21T14:49:15;24.40;90.20
30648;DHT22;17683;53.360;9.736;2022-08-21T14:51:41;24.50;90.60
30648;DHT22;17683;53.360;9.736;2022-08-21T14:54:07;24.60;90.70
30648;DHT22;17683;53.360;9.736;2022-08-21T14:56:34;24.70;90.70
30648;DHT22;17683;53.360;9.736;2022-08-21T14:59:05;24.80;90.10
30648;DHT22;17683;53.360;9.736;2022-08-21T15:01:35;24.80;90.00
30648;DHT22;17683;53.360;9.736;2022-08-21T15:04:01;24.70;89.20
30648;DHT22;17683;53.360;9.736;2022-08-21T15:06:27;24.60;89.40
30648;DHT22;17683;53.360;9.736;2022-08-21T15:08:52;24.60;90.50
30648;DHT22;17683;53.360;9.736;2022-08-21T15:11:20;24.60;90.30
30648;DHT22;17683;53.360;9.736;2022-08-21T15:13:47;24.60;90.90
30648;DHT22;17683;53.360;9.736;2022-08-21T15:16:15;24.70;90.50
30648;DHT22;17683;53.360;9.736;2022-08-21T15:18:41;24.70;90.10
30648;DHT22;17683;53.360;9.736;2022-08-21T15:21:07;24.80;90.00
30648;DHT22;17683;53.360;9.736;2022-08-21T15:23:33;24.80;90.60
30648;DHT22;17683;53.360;9.736;2022-08-21T15:26:00;24.90;90.40
30648;DHT22;17683;53.360;9.736;2022-08-21T15:28:26;24.90;90.30
30648;DHT22;17683;53.360;9.736;2022-08-21T15:30:52;24.80;91.00
30648;DHT22;17683;53.360;9.736;2022-08-21T15:33:18;24.70;91.10
30648;DHT22;17683;53.360;9.736;2022-08-21T15:35:44;24.50;90.30
30648;DHT22;17683;53.360;9.736;2022-08-21T15:38:11;24.30;90.70
30648;DHT22;17683;53.360;9.736;2022-08-21T15:40:38;24.20;91.10
30648;DHT22;17683;53.360;9.736;2022-08-21T15:43:05;24.00;91.60
30648;DHT22;17683;53.360;9.736;2022-08-21T15:45:32;23.80;91.70
30648;DHT22;17683;53.360;9.736;2022-08-21T15:47:58;23.70;92.00
30648;DHT22;17683;53.360;9.736;2022-08-21T15:50:25;23.60;92.70
30648;DHT22;17683;53.360;9.736;2022-08-21T15:52:51;23.50;93.00
30648;DHT22;17683;53.360;9.736;2022-08-21T15:55:17;23.50;93.00
30648;DHT22;17683;53.360;9.736;2022-08-21T15:57:45;23.50;93.50
30648;DHT22;17683;53.360;9.736;2022-08-21T16:00:21;23.40;93.90
30648;DHT22;17683;53.360;9.736;2022-08-21T16:02:51;23.40;93.80
30648;DHT22;17683;53.360;9.736;2022-08-21T16:05:17;23.40;93.10
30648;DHT22;17683;53.360;9.736;2022-08-21T16:07:44;23.40;93.90
30648;DHT22;17683;53.360;9.736;2022-08-21T16:10:11;23.30;94.10
30648;DHT22;17683;53.360;9.736;2022-08-21T16:12:53;23.20;94.00
30648;DHT22;17683;53.360;9.736;2022-08-21T16:15:19;23.20;94.60
30648;DHT22;17683;53.360;9.736;2022-08-21T16:17:46;23.00;95.00
30648;DHT22;17683;53.360;9.736;2022-08-21T16:20:20;22.90;94.90
30648;DHT22;17683;53.360;9.736;2022-08-21T16:22:46;22.90;95.10
30648;DHT22;17683;53.360;9.736;2022-08-21T16:25:13;22.80;95.40
30648;DHT22;17683;53.360;9.736;2022-08-21T16:27:40;22.80;94.40
30648;DHT22;17683;53.360;9.736;2022-08-21T16:30:07;22.80;95.10
30648;DHT22;17683;53.360;9.736;2022-08-21T16:38:35;22.50;95.80
30648;DHT22;17683;53.360;9.736;2022-08-21T16:41:04;22.50;95.90
30648;DHT22;17683;53.360;9.736;2022-08-21T16:43:30;22.40;95.80
30648;DHT22;17683;53.360;9.736;2022-08-21T16:45:57;22.40;94.10
30648;DHT22;17683;53.360;9.736;2022-08-21T16:48:23;22.40;95.60
30648;DHT22;17683;53.360;9.736;2022-08-21T16:50:49;22.30;96.10
30648;DHT22;17683;53.360;9.736;2022-08-21T16:53:15;22.30;96.30
30648;DHT22;17683;53.360;9.736;2022-08-21T16:55:42;22.30;95.60
30648;DHT22;17683;53.360;9.736;2022-08-21T16:58:12;22.30;95.90
30648;DHT22;17683;53.360;9.736;2022-08-21T17:00:40;22.30;96.50
30648;DHT22;17683;53.360;9.736;2022-08-21T17:03:06;22.30;96.60